createdAt,value
2023-04-09T00:04:33.517Z,3.00
2023-04-09T00:09:38.522Z,3.00
2023-04-09T00:14:41.739Z,2.80
2023-04-09T00:19:45.023Z,2.80
2023-04-09T00:24:49.824Z,2.70
2023-04-09T00:29:53.898Z,2.60
2023-04-09T00:34:57.566Z,2.60
2023-04-09T00:40:02.526Z,2.50
2023-04-09T00:45:07.144Z,2.50
2023-04-09T00:50:11.034Z,2.30
2023-04-09T00:55:16.771Z,2.40
2023-04-09T01:00:20.682Z,2.30
2023-04-09T01:05:28.339Z,2.20
2023-04-09T01:10:40.768Z,1.90
2023-04-09T01:15:48.758Z,1.90
2023-04-09T01:20:57.899Z,1.80
2023-04-09T01:26:07.518Z,1.80
2023-04-09T01:31:30.796Z,1.80
2023-04-09T01:36:35.821Z,1.80
2023-04-09T01:41:40.474Z,1.80
2023-04-09T01:46:47.371Z,1.70
2023-04-09T01:51:50.932Z,1.80
2023-04-09T01:56:54.218Z,2.20
2023-04-09T02:02:03.814Z,2.50
2023-04-09T02:07:12.932Z,2.80
2023-04-09T02:12:19.155Z,3.00
2023-04-09T02:17:23.958Z,3.30
2023-04-09T02:22:27.549Z,3.40
2023-04-09T02:27:31.201Z,3.50
2023-04-09T02:32:36.251Z,3.70
2023-04-09T02:37:39.528Z,3.90
2023-04-09T02:42:42.907Z,4.00
2023-04-09T02:47:47.703Z,4.00
2023-04-09T02:52:51.326Z,3.90
2023-04-09T02:57:54.728Z,3.90
2023-04-09T03:02:59.509Z,4.00
2023-04-09T03:08:02.973Z,4.00
2023-04-09T03:13:06.297Z,3.90
2023-04-09T03:18:11.202Z,3.90
2023-04-09T03:23:14.638Z,3.90
2023-04-09T03:28:23.993Z,3.80
2023-04-09T03:33:31.519Z,4.00
2023-04-09T03:38:36.275Z,3.90
2023-04-09T03:43:45.669Z,4.00
2023-04-09T03:48:53.166Z,4.10
2023-04-09T03:53:57.440Z,4.20
2023-04-09T03:59:01.558Z,4.30
2023-04-09T04:04:14.854Z,4.30
2023-04-09T04:09:26.508Z,4.30
2023-04-09T04:14:37.427Z,4.30
2023-04-09T04:19:52.893Z,4.40
2023-04-09T04:24:56.895Z,4.50
2023-04-09T04:30:02.327Z,4.50
2023-04-09T04:35:32.753Z,4.50
2023-04-09T04:40:39.484Z,4.50
2023-04-09T04:45:44.043Z,4.60
2023-04-09T04:50:57.043Z,4.70
2023-04-09T04:56:02.043Z,4.70
2023-04-09T05:01:05.769Z,4.90
2023-04-09T05:06:11.916Z,5.10
2023-04-09T05:11:21.197Z,5.20
2023-04-09T05:16:25.557Z,5.40
2023-04-09T05:21:39.063Z,5.50
2023-04-09T05:26:43.093Z,5.60
2023-04-09T05:31:47.007Z,5.60
2023-04-09T05:37:02.419Z,5.60
2023-04-09T05:42:06.760Z,5.70
2023-04-09T05:47:15.145Z,5.80
2023-04-09T05:52:27.730Z,5.80
2023-04-09T05:57:32.074Z,5.50
2023-04-09T06:02:39.202Z,5.50
2023-04-09T06:07:44.186Z,5.40
2023-04-09T06:12:47.757Z,5.50
2023-04-09T06:17:51.464Z,5.50
2023-04-09T06:22:56.318Z,6.00
2023-04-09T06:27:59.793Z,5.80
2023-04-09T06:33:03.774Z,6.40
2023-04-09T06:38:10.147Z,6.60
2023-04-09T06:43:13.675Z,6.60
2023-04-09T06:48:27.992Z,6.10
2023-04-09T06:53:32.692Z,6.70
2023-04-09T06:58:36.750Z,7.00
2023-04-09T07:03:40.703Z,6.90
2023-04-09T07:08:45.631Z,7.10
2023-04-09T07:13:49.598Z,7.30
2023-04-09T07:18:52.975Z,7.30
2023-04-09T07:23:57.895Z,7.40
2023-04-09T07:29:02.127Z,7.40
2023-04-09T07:34:05.734Z,7.70
2023-04-09T07:39:10.420Z,7.90
2023-04-09T07:44:14.392Z,8.30
2023-04-09T07:49:17.862Z,8.20
2023-04-09T07:54:23.222Z,8.10
2023-04-09T07:59:27.635Z,8.00
2023-04-09T08:04:31.984Z,8.30
2023-04-09T08:09:37.053Z,7.80
2023-04-09T08:14:41.358Z,8.50
2023-04-09T08:19:45.020Z,8.50
2023-04-09T08:24:53.295Z,8.50
2023-04-09T08:29:57.505Z,8.70
2023-04-09T08:35:01.266Z,8.30
2023-04-09T08:40:08.737Z,8.80
2023-04-09T08:45:13.042Z,9.00
2023-04-09T08:50:16.705Z,8.90
2023-04-09T08:55:22.690Z,9.00
2023-04-09T09:00:26.291Z,9.00
2023-04-09T09:05:37.127Z,8.90
2023-04-09T09:10:43.897Z,9.30
2023-04-09T09:15:49.927Z,9.10
2023-04-09T09:20:58.676Z,9.30
2023-04-09T09:26:12.940Z,8.90
2023-04-09T09:31:18.919Z,9.10
2023-04-09T09:36:33.215Z,8.80
2023-04-09T09:41:38.191Z,8.70
2023-04-09T09:46:42.641Z,8.80
2023-04-09T09:51:46.302Z,9.50
2023-04-09T09:56:53.603Z,10.20
2023-04-09T10:02:01.506Z,10.30
2023-04-09T10:07:07.105Z,9.60
2023-04-09T10:12:12.260Z,9.80
2023-04-09T10:17:16.223Z,10.30
2023-04-09T10:22:23.409Z,10.40
2023-04-09T10:27:28.671Z,10.40
2023-04-09T10:32:36.145Z,10.10
2023-04-09T10:37:50.572Z,10.90
2023-04-09T10:42:57.614Z,10.80
2023-04-09T10:48:03.256Z,10.70
2023-04-09T10:53:06.737Z,11.40
2023-04-09T10:58:13.502Z,11.50
2023-04-09T11:03:25.733Z,11.50
2023-04-09T11:08:31.046Z,11.60
2023-04-09T11:13:36.169Z,11.30
2023-04-09T11:18:39.656Z,11.00
2023-04-09T11:23:51.763Z,12.30
2023-04-09T11:28:58.217Z,12.90
2023-04-09T11:34:01.651Z,13.10
2023-04-09T11:39:05.096Z,12.20
2023-04-09T11:44:10.036Z,13.00
2023-04-09T11:49:13.878Z,13.50
2023-04-09T11:54:17.832Z,13.80
2023-04-09T11:59:22.641Z,14.50
2023-04-09T12:04:26.374Z,16.10
2023-04-09T12:09:29.792Z,16.30
2023-04-09T12:14:35.386Z,16.70
2023-04-09T12:19:38.783Z,16.80
2023-04-09T12:24:42.801Z,16.60
2023-04-09T12:29:47.471Z,17.20
2023-04-09T12:34:51.192Z,17.70
2023-04-09T12:39:54.568Z,17.60
2023-04-09T12:44:59.290Z,17.70
2023-04-09T12:50:03.813Z,18.10
2023-04-09T12:55:08.182Z,18.00
2023-04-09T13:00:14.406Z,17.70
2023-04-09T13:05:18.175Z,17.70
2023-04-09T13:10:21.526Z,17.10
2023-04-09T13:15:27.377Z,17.30
2023-04-09T13:20:30.870Z,16.50
2023-04-09T13:25:34.143Z,16.50
2023-04-09T13:30:39.020Z,17.10
2023-04-09T13:35:42.309Z,16.20
2023-04-09T13:40:46.004Z,16.50
2023-04-09T13:45:50.758Z,16.90
2023-04-09T13:50:54.116Z,15.50
2023-04-09T13:55:57.649Z,15.50
2023-04-09T14:01:03.165Z,15.70
2023-04-09T14:06:08.514Z,15.60
2023-04-09T14:11:15.196Z,16.60
2023-04-09T14:16:20.576Z,16.70
2023-04-09T14:21:24.652Z,17.30
2023-04-09T14:26:29.279Z,17.20
2023-04-09T14:31:33.962Z,16.40
2023-04-09T14:36:37.423Z,15.70
2023-04-09T14:41:41.568Z,16.80
2023-04-09T14:46:46.375Z,17.30
2023-04-09T14:51:49.684Z,15.60
2023-04-09T14:56:53.109Z,15.80
2023-04-09T15:01:57.951Z,15.60
2023-04-09T15:07:01.203Z,16.40
2023-04-09T15:12:04.933Z,16.00
2023-04-09T15:17:09.972Z,15.50
2023-04-09T15:22:13.255Z,16.30
2023-04-09T15:27:17.722Z,16.50
2023-04-09T15:32:22.520Z,15.60
2023-04-09T15:37:26.374Z,15.60
2023-04-09T15:42:29.602Z,15.70
2023-04-09T15:47:34.275Z,15.50
2023-04-09T15:52:38.058Z,15.00
2023-04-09T15:57:41.346Z,15.00
2023-04-09T16:02:46.310Z,14.40
2023-04-09T16:07:51.408Z,13.50
2023-04-09T16:12:55.194Z,12.90
2023-04-09T16:17:59.970Z,13.00
2023-04-09T16:23:03.698Z,12.70
2023-04-09T16:28:07.165Z,12.30
2023-04-09T16:33:12.324Z,12.10
2023-04-09T16:38:15.584Z,12.20
2023-04-09T16:43:18.915Z,11.70
2023-04-09T16:48:24.039Z,11.70
2023-04-09T16:53:27.891Z,11.30
2023-04-09T16:58:32.048Z,11.20
2023-04-09T17:03:36.822Z,11.00
2023-04-09T17:08:40.300Z,10.70
2023-04-09T17:13:44.139Z,10.40
2023-04-09T17:18:49.606Z,10.20
2023-04-09T17:23:53.191Z,10.00
2023-04-09T17:28:57.071Z,9.90
2023-04-09T17:34:01.949Z,9.60
2023-04-09T17:39:06.482Z,9.40
2023-04-09T17:44:10.059Z,9.20
2023-04-09T17:49:14.740Z,9.00
2023-04-09T17:54:18.401Z,8.80
2023-04-09T17:59:21.678Z,8.50
2023-04-09T18:04:27.050Z,8.30
2023-04-09T18:09:31.098Z,8.10
2023-04-09T18:14:34.778Z,7.80
2023-04-09T18:19:39.751Z,7.60
2023-04-09T18:24:44.198Z,7.40
2023-04-09T18:29:49.318Z,7.20
2023-04-09T18:34:54.316Z,7.20
2023-04-09T18:39:58.832Z,7.00
2023-04-09T18:45:03.839Z,7.00
2023-04-09T18:50:10.454Z,6.90
2023-04-09T18:55:14.340Z,6.80
2023-04-09T19:00:18.160Z,6.70
2023-04-09T19:05:22.805Z,6.50
2023-04-09T19:10:27.321Z,6.30
2023-04-09T19:15:31.149Z,6.20
2023-04-09T19:20:37.627Z,6.30
2023-04-09T19:25:41.170Z,6.00
2023-04-09T19:30:44.593Z,5.90
2023-04-09T19:35:50.071Z,5.90
2023-04-09T19:40:53.793Z,5.90
2023-04-09T19:45:57.144Z,5.60
2023-04-09T19:51:02.222Z,5.50
2023-04-09T19:56:06.493Z,5.30
2023-04-09T20:01:09.937Z,5.20
2023-04-09T20:06:15.172Z,5.00
2023-04-09T20:11:18.564Z,5.00
2023-04-09T20:16:22.821Z,4.80
2023-04-09T20:21:27.982Z,4.70
2023-04-09T20:26:31.392Z,4.70
2023-04-09T20:31:35.191Z,4.50
2023-04-09T20:36:43.757Z,4.50
2023-04-09T20:41:47.335Z,4.40
2023-04-09T20:46:51.416Z,4.40
2023-04-09T20:51:56.904Z,4.30
2023-04-09T20:57:01.559Z,4.20
2023-04-09T21:02:05.239Z,4.10
2023-04-09T21:07:09.955Z,4.00
2023-04-09T21:12:13.548Z,4.00
2023-04-09T21:17:18.367Z,3.90
2023-04-09T21:22:24.273Z,3.80
2023-04-09T21:27:27.498Z,3.70
2023-04-09T21:32:31.428Z,3.80
2023-04-09T21:37:38.413Z,3.70
2023-04-09T21:42:41.810Z,3.60
2023-04-09T21:47:45.996Z,3.60
2023-04-09T21:52:51.050Z,3.50
2023-04-09T21:57:55.366Z,3.50
2023-04-09T22:03:01.422Z,3.40
2023-04-09T22:08:07.318Z,3.40
2023-04-09T22:13:10.874Z,3.30
2023-04-09T22:18:14.201Z,3.30
2023-04-09T22:23:18.777Z,3.20
2023-04-09T22:28:22.598Z,3.20
2023-04-09T22:33:26.651Z,3.20
2023-04-09T22:38:31.325Z,3.10
2023-04-09T22:43:35.081Z,3.00
2023-04-09T22:48:44.614Z,2.90
2023-04-09T22:53:49.898Z,3.00
2023-04-09T22:58:53.341Z,2.90
2023-04-09T23:03:56.745Z,2.80
2023-04-09T23:09:01.608Z,2.80
2023-04-09T23:14:05.142Z,2.80
2023-04-09T23:19:08.516Z,2.80
2023-04-09T23:24:13.832Z,2.70
2023-04-09T23:29:17.173Z,2.80
2023-04-09T23:34:20.923Z,2.70
2023-04-09T23:39:25.544Z,2.70
2023-04-09T23:44:28.850Z,2.60
2023-04-09T23:49:32.397Z,2.60
2023-04-09T23:54:37.128Z,2.70
2023-04-09T23:59:40.584Z,2.60
